createdAt,value
2017-11-17T00:03:13.545Z,96.30
2017-11-17T00:05:42.573Z,96.60
2017-11-17T00:08:13.687Z,96.60
2017-11-17T00:10:47.512Z,96.60
2017-11-17T00:13:19.394Z,96.30
2017-11-17T00:15:49.778Z,96.40
2017-11-17T00:18:21.174Z,96.40
2017-11-17T00:20:50.328Z,96.40
2017-11-17T00:23:23.200Z,96.50
2017-11-17T00:25:56.828Z,96.50
2017-11-17T00:28:26.562Z,96.30
2017-11-17T00:30:54.107Z,96.40
2017-11-17T00:33:21.992Z,96.60
2017-11-17T00:35:49.539Z,96.60
2017-11-17T00:38:17.035Z,96.70
2017-11-17T00:40:44.545Z,96.70
2017-11-17T00:43:14.349Z,96.80
2017-11-17T00:45:42.236Z,96.80
2017-11-17T00:48:10.113Z,97.00
2017-11-17T00:50:37.619Z,97.00
2017-11-17T00:53:05.139Z,97.00
2017-11-17T00:55:32.670Z,96.80
2017-11-17T00:58:00.164Z,96.90
2017-11-17T01:00:27.689Z,97.00
2017-11-17T01:02:55.571Z,97.00
2017-11-17T01:05:23.228Z,97.00
2017-11-17T01:07:50.787Z,97.20
2017-11-17T01:10:19.191Z,97.30
2017-11-17T01:12:46.696Z,97.40
2017-11-17T01:15:14.249Z,97.60
2017-11-17T01:17:41.751Z,97.60
2017-11-17T01:20:09.283Z,97.50
2017-11-17T01:22:37.176Z,97.60
2017-11-17T01:25:04.691Z,97.50
2017-11-17T01:27:33.153Z,97.60
2017-11-17T01:30:00.656Z,97.60
2017-11-17T01:32:28.144Z,97.60
2017-11-17T01:34:55.672Z,97.50
2017-11-17T01:37:23.589Z,97.50
2017-11-17T01:39:51.068Z,97.50
2017-11-17T01:42:18.573Z,97.50
2017-11-17T01:44:46.069Z,97.40
2017-11-17T01:47:15.466Z,97.40
2017-11-17T01:49:42.982Z,97.40
2017-11-17T01:52:10.863Z,97.50
2017-11-17T01:54:38.375Z,97.50
2017-11-17T01:57:05.863Z,97.40
2017-11-17T01:59:33.769Z,97.60
2017-11-17T02:02:02.212Z,97.60
2017-11-17T02:04:30.109Z,97.60
2017-11-17T02:06:57.615Z,97.60
2017-11-17T02:09:26.073Z,97.40
2017-11-17T02:11:53.592Z,97.40
2017-11-17T02:14:22.073Z,97.40
2017-11-17T02:16:49.953Z,97.50
2017-11-17T02:19:17.461Z,97.50
2017-11-17T02:21:44.982Z,97.70
2017-11-17T02:24:12.464Z,97.70
2017-11-17T02:26:39.966Z,97.70
2017-11-17T02:29:07.492Z,97.70
2017-11-17T02:31:35.414Z,97.60
2017-11-17T02:34:02.928Z,97.60
2017-11-17T02:36:31.792Z,97.80
2017-11-17T02:39:00.329Z,97.80
2017-11-17T02:41:28.032Z,98.10
2017-11-17T02:43:55.543Z,98.10
2017-11-17T02:46:23.060Z,98.20
2017-11-17T02:48:50.582Z,98.40
2017-11-17T02:51:18.551Z,98.80
2017-11-17T02:53:46.048Z,98.80
2017-11-17T02:56:13.581Z,98.80
2017-11-17T02:58:41.071Z,98.70
2017-11-17T03:01:08.580Z,98.70
2017-11-17T03:03:36.065Z,98.80
2017-11-17T03:06:03.581Z,98.90
2017-11-17T03:08:31.092Z,98.90
2017-11-17T03:10:58.585Z,98.90
2017-11-17T03:13:26.484Z,99.00
2017-11-17T03:15:53.969Z,99.00
2017-11-17T03:18:21.487Z,98.90
2017-11-17T03:20:48.984Z,98.60
2017-11-17T03:23:16.519Z,98.70
2017-11-17T03:25:44.020Z,98.80
2017-11-17T03:28:11.519Z,99.00
2017-11-17T03:30:39.032Z,98.90
2017-11-17T03:33:06.525Z,98.90
2017-11-17T03:35:34.052Z,98.80
2017-11-17T03:38:01.559Z,98.80
2017-11-17T03:40:29.045Z,98.90
2017-11-17T03:42:56.568Z,99.00
2017-11-17T03:45:24.068Z,99.00
2017-11-17T03:47:51.583Z,99.00
2017-11-17T03:50:19.068Z,99.00
2017-11-17T03:52:46.569Z,99.10
2017-11-17T03:55:14.471Z,98.80
2017-11-17T03:57:42.028Z,98.80
2017-11-17T04:00:09.533Z,98.80
2017-11-17T04:02:37.031Z,98.90
2017-11-17T04:05:04.912Z,99.20
2017-11-17T04:07:32.431Z,99.20
2017-11-17T04:10:00.313Z,99.20
2017-11-17T04:12:28.196Z,99.20
2017-11-17T04:14:57.717Z,99.20
2017-11-17T04:17:25.195Z,99.20
2017-11-17T04:19:52.732Z,99.00
2017-11-17T04:22:20.230Z,99.00
2017-11-17T04:24:47.730Z,99.00
2017-11-17T04:27:15.248Z,99.00
2017-11-17T04:29:42.776Z,98.90
2017-11-17T04:32:10.282Z,98.80
2017-11-17T04:34:38.182Z,98.60
2017-11-17T04:37:05.671Z,98.60
2017-11-17T04:39:35.144Z,98.60
2017-11-17T04:42:02.629Z,98.70
2017-11-17T04:44:30.109Z,99.00
2017-11-17T04:46:57.613Z,99.10
2017-11-17T04:49:25.108Z,99.10
2017-11-17T04:51:52.635Z,98.80
2017-11-17T04:54:20.159Z,98.50
2017-11-17T04:56:48.088Z,98.50
2017-11-17T04:59:15.598Z,98.50
2017-11-17T05:01:43.499Z,98.70
2017-11-17T05:04:11.018Z,98.70
2017-11-17T05:06:38.917Z,98.80
2017-11-17T05:09:08.418Z,98.80
2017-11-17T05:11:35.921Z,98.90
2017-11-17T05:14:03.405Z,98.90
2017-11-17T05:16:31.319Z,99.10
2017-11-17T05:18:59.202Z,99.10
2017-11-17T05:21:26.745Z,99.10
2017-11-17T05:23:55.214Z,99.20
2017-11-17T05:26:22.760Z,99.30
2017-11-17T05:28:50.466Z,99.40
2017-11-17T05:31:17.955Z,99.40
2017-11-17T05:33:45.937Z,99.60
2017-11-17T05:36:13.820Z,99.60
2017-11-17T05:38:41.325Z,99.60
2017-11-17T05:41:08.836Z,99.70
2017-11-17T05:43:38.296Z,99.70
2017-11-17T05:46:06.720Z,99.80
2017-11-17T05:48:34.228Z,99.70
2017-11-17T05:51:02.685Z,99.70
2017-11-17T05:53:31.128Z,99.60
2017-11-17T05:55:59.034Z,99.60
2017-11-17T05:58:27.522Z,99.60
2017-11-17T06:00:55.039Z,99.40
2017-11-17T06:03:22.548Z,99.40
2017-11-17T06:05:50.051Z,99.40
2017-11-17T06:08:18.285Z,99.30
2017-11-17T06:10:45.797Z,99.30
2017-11-17T06:13:13.279Z,99.30
2017-11-17T06:15:41.707Z,99.30
2017-11-17T06:18:10.589Z,99.40
2017-11-17T06:20:38.076Z,99.40
2017-11-17T06:23:05.581Z,99.30
2017-11-17T06:25:33.069Z,99.40
2017-11-17T06:28:00.981Z,99.30
2017-11-17T06:30:29.404Z,99.30
2017-11-17T06:32:56.948Z,99.40
2017-11-17T06:35:24.439Z,99.40
2017-11-17T06:37:52.315Z,99.30
2017-11-17T06:40:20.212Z,99.30
2017-11-17T06:42:48.858Z,99.30
2017-11-17T06:45:18.339Z,99.10
2017-11-17T06:47:45.863Z,99.10
2017-11-17T06:50:13.375Z,99.20
2017-11-17T06:52:41.317Z,99.40
2017-11-17T06:55:08.807Z,99.40
2017-11-17T06:57:36.689Z,99.40
2017-11-17T07:00:04.192Z,99.40
2017-11-17T07:02:31.694Z,99.40
2017-11-17T07:04:59.585Z,99.50
2017-11-17T07:07:27.086Z,99.50
2017-11-17T07:09:55.029Z,99.20
2017-11-17T07:12:22.512Z,99.20
2017-11-17T07:14:50.965Z,99.20
2017-11-17T07:17:18.500Z,99.10
2017-11-17T07:19:45.984Z,99.10
2017-11-17T07:22:13.493Z,99.20
2017-11-17T07:24:41.390Z,99.00
2017-11-17T07:27:09.285Z,99.00
2017-11-17T07:29:36.785Z,99.00
2017-11-17T07:32:04.692Z,98.70
2017-11-17T07:34:32.175Z,98.70
2017-11-17T07:36:59.669Z,98.70
2017-11-17T07:39:27.606Z,98.70
2017-11-17T07:41:55.104Z,98.70
2017-11-17T07:44:23.009Z,98.80
2017-11-17T07:46:51.452Z,98.80
2017-11-17T07:49:19.357Z,99.00
2017-11-17T07:51:46.861Z,99.00
2017-11-17T07:54:14.772Z,99.00
2017-11-17T07:56:42.272Z,99.00
2017-11-17T07:59:09.769Z,98.90
2017-11-17T08:01:37.760Z,99.00
2017-11-17T08:04:05.256Z,99.10
2017-11-17T08:06:32.785Z,99.00
2017-11-17T08:09:01.241Z,98.90
2017-11-17T08:11:28.750Z,99.00
2017-11-17T08:13:56.238Z,99.00
2017-11-17T08:16:24.156Z,98.90
2017-11-17T08:18:51.764Z,98.90
2017-11-17T08:21:25.818Z,99.00
2017-11-17T08:23:55.232Z,99.00
2017-11-17T08:26:22.748Z,98.70
2017-11-17T08:28:50.648Z,98.30
2017-11-17T08:31:19.079Z,98.30
2017-11-17T08:33:46.982Z,98.50
2017-11-17T08:36:14.477Z,98.50
2017-11-17T08:38:42.936Z,98.50
2017-11-17T08:41:10.440Z,98.40
2017-11-17T08:43:38.333Z,98.50
2017-11-17T08:46:05.887Z,98.50
2017-11-17T08:48:33.770Z,98.60
2017-11-17T08:51:02.257Z,98.60
2017-11-17T08:53:29.737Z,98.60
2017-11-17T08:55:57.239Z,98.60
2017-11-17T08:58:25.139Z,98.90
2017-11-17T09:00:52.634Z,98.90
2017-11-17T09:03:20.137Z,98.80
2017-11-17T09:05:48.956Z,98.30
2017-11-17T09:08:16.443Z,98.30
2017-11-17T09:10:43.948Z,98.50
2017-11-17T09:13:11.428Z,98.50
2017-11-17T09:15:38.944Z,98.50
2017-11-17T09:18:06.834Z,98.70
2017-11-17T09:20:34.341Z,98.70
2017-11-17T09:23:01.829Z,98.80
2017-11-17T09:25:29.725Z,98.70
2017-11-17T09:27:59.221Z,98.80
2017-11-17T09:30:26.716Z,98.90
2017-11-17T09:32:54.234Z,98.80
2017-11-17T09:35:21.732Z,98.90
2017-11-17T09:37:51.177Z,99.10
2017-11-17T09:40:19.064Z,99.10
2017-11-17T09:42:47.595Z,99.10
2017-11-17T09:45:15.080Z,99.20
2017-11-17T09:47:43.032Z,99.30
2017-11-17T09:50:10.572Z,99.30
2017-11-17T09:52:38.057Z,99.30
2017-11-17T09:55:05.565Z,99.40
2017-11-17T09:57:33.059Z,99.20
2017-11-17T10:00:00.541Z,99.10
2017-11-17T10:02:28.450Z,99.00
2017-11-17T10:04:55.979Z,99.00
2017-11-17T10:07:23.878Z,98.60
2017-11-17T10:09:51.356Z,98.60
2017-11-17T10:12:18.852Z,98.60
2017-11-17T10:14:46.757Z,98.40
2017-11-17T10:17:14.265Z,98.40
2017-11-17T10:19:42.179Z,98.10
2017-11-17T10:22:10.427Z,98.10
2017-11-17T10:24:38.308Z,98.40
2017-11-17T10:27:05.816Z,98.40
2017-11-17T10:29:33.329Z,98.30
2017-11-17T10:32:00.835Z,98.10
2017-11-17T10:34:28.319Z,97.70
2017-11-17T10:36:56.222Z,97.80
2017-11-17T10:39:25.743Z,97.80
2017-11-17T10:41:53.273Z,98.10
2017-11-17T10:44:20.793Z,98.20
2017-11-17T10:46:48.720Z,97.60
2017-11-17T10:49:16.222Z,97.60
2017-11-17T10:51:43.726Z,97.70
2017-11-17T10:54:11.232Z,97.30
2017-11-17T10:56:38.730Z,97.30
2017-11-17T10:59:08.711Z,97.30
2017-11-17T11:01:36.224Z,97.50
2017-11-17T11:04:03.730Z,97.30
2017-11-17T11:06:31.720Z,97.10
2017-11-17T11:08:59.309Z,96.70
2017-11-17T11:11:32.407Z,96.60
2017-11-17T11:13:59.920Z,96.80
2017-11-17T11:16:27.818Z,96.70
2017-11-17T11:18:55.300Z,96.70
2017-11-17T11:21:22.812Z,96.90
2017-11-17T11:23:50.684Z,97.10
2017-11-17T11:26:18.586Z,96.90
2017-11-17T11:28:46.092Z,96.90
2017-11-17T11:31:14.909Z,96.60
2017-11-17T11:33:42.417Z,96.60
2017-11-17T11:36:09.949Z,95.90
2017-11-17T11:38:37.485Z,95.70
2017-11-17T11:41:04.986Z,95.70
2017-11-17T11:43:32.560Z,95.00
2017-11-17T11:46:00.072Z,94.80
2017-11-17T11:48:27.681Z,94.90
2017-11-17T11:50:55.217Z,94.90
2017-11-17T11:53:22.736Z,95.50
2017-11-17T11:55:50.264Z,95.40
2017-11-17T11:58:19.001Z,95.60
2017-11-17T12:00:46.500Z,96.20
2017-11-17T12:03:13.999Z,96.40
2017-11-17T12:05:41.482Z,96.40
2017-11-17T12:08:10.960Z,96.30
2017-11-17T12:10:38.459Z,96.20
2017-11-17T12:13:05.968Z,94.90
2017-11-17T12:15:33.882Z,95.30
2017-11-17T12:18:03.367Z,95.30
2017-11-17T12:20:30.855Z,95.70
2017-11-17T12:22:58.352Z,94.70
2017-11-17T12:25:25.867Z,94.60
2017-11-17T12:27:54.424Z,94.90
2017-11-17T12:30:21.912Z,94.70
2017-11-17T12:32:49.392Z,95.30
2017-11-17T12:35:16.892Z,94.90
2017-11-17T12:37:44.386Z,95.10
2017-11-17T12:40:11.913Z,95.20
2017-11-17T12:42:39.412Z,95.20
2017-11-17T12:45:06.933Z,95.70
2017-11-17T12:47:34.422Z,95.90
2017-11-17T12:50:01.929Z,96.10
2017-11-17T12:52:29.424Z,96.50
2017-11-17T12:54:56.908Z,96.30
2017-11-17T12:57:24.449Z,95.90
2017-11-17T12:59:51.913Z,96.00
2017-11-17T13:02:19.540Z,95.90
2017-11-17T13:04:47.081Z,96.00
2017-11-17T13:07:14.573Z,96.00
2017-11-17T13:09:42.092Z,96.10
2017-11-17T13:12:09.582Z,96.20
2017-11-17T13:14:39.059Z,96.10
2017-11-17T13:17:06.581Z,96.00
2017-11-17T13:19:34.094Z,96.10
2017-11-17T13:22:03.598Z,96.20
2017-11-17T13:24:31.105Z,96.30
2017-11-17T13:26:58.608Z,96.30
2017-11-17T13:29:26.261Z,96.10
2017-11-17T13:31:53.831Z,95.90
2017-11-17T13:34:21.364Z,96.00
2017-11-17T13:36:50.861Z,96.30
2017-11-17T13:39:18.796Z,96.00
2017-11-17T13:41:46.285Z,96.10
2017-11-17T13:44:14.200Z,96.20
2017-11-17T13:46:41.684Z,96.20
2017-11-17T13:49:09.185Z,96.20
2017-11-17T13:51:36.673Z,95.80
2017-11-17T13:54:06.155Z,95.40
2017-11-17T13:56:33.643Z,94.90
2017-11-17T13:59:01.149Z,95.20
2017-11-17T14:01:29.041Z,95.70
2017-11-17T14:03:56.555Z,95.70
2017-11-17T14:06:26.023Z,95.60
2017-11-17T14:08:53.511Z,95.60
2017-11-17T14:11:21.003Z,95.70
2017-11-17T14:13:48.876Z,96.00
2017-11-17T14:16:16.782Z,95.90
2017-11-17T14:18:44.818Z,95.90
2017-11-17T14:21:14.244Z,95.80
2017-11-17T14:23:41.791Z,95.70
2017-11-17T14:26:09.363Z,95.80
2017-11-17T14:28:36.852Z,95.80
2017-11-17T14:31:05.289Z,95.60
2017-11-17T14:33:32.825Z,95.70
2017-11-17T14:36:00.802Z,95.80
2017-11-17T14:38:29.416Z,95.80
2017-11-17T14:40:56.899Z,95.70
2017-11-17T14:43:24.388Z,95.80
2017-11-17T14:45:52.294Z,96.10
2017-11-17T14:48:19.776Z,96.10
2017-11-17T14:50:47.284Z,96.10
2017-11-17T14:53:14.774Z,96.20
2017-11-17T14:55:42.269Z,96.20
2017-11-17T14:58:09.853Z,96.40
2017-11-17T15:00:38.713Z,96.70
2017-11-17T15:03:06.212Z,96.70
2017-11-17T15:05:33.725Z,96.80
2017-11-17T15:08:01.221Z,96.80
2017-11-17T15:10:29.127Z,96.50
2017-11-17T15:12:56.637Z,96.50
2017-11-17T15:15:24.156Z,96.70
2017-11-17T15:17:51.645Z,96.90
2017-11-17T15:20:19.555Z,97.00
2017-11-17T15:22:47.096Z,97.00
2017-11-17T15:25:14.604Z,97.10
2017-11-17T15:27:42.094Z,97.10
2017-11-17T15:30:10.044Z,97.00
2017-11-17T15:32:37.532Z,97.00
2017-11-17T15:35:05.454Z,97.10
2017-11-17T15:37:32.942Z,97.00
2017-11-17T15:40:00.858Z,97.30
2017-11-17T15:42:28.395Z,97.30
2017-11-17T15:44:55.892Z,97.00
2017-11-17T15:47:23.403Z,97.00
2017-11-17T15:49:51.287Z,97.00
2017-11-17T15:52:19.844Z,97.00
2017-11-17T15:54:47.717Z,97.00
2017-11-17T15:57:15.673Z,97.00
2017-11-17T15:59:43.539Z,97.40
2017-11-17T16:02:11.432Z,97.30
2017-11-17T16:04:38.971Z,97.30
2017-11-17T16:07:06.860Z,97.50
2017-11-17T16:09:34.365Z,97.50
2017-11-17T16:12:01.862Z,97.60
2017-11-17T16:14:29.827Z,97.60
2017-11-17T16:16:57.768Z,97.60
2017-11-17T16:19:26.199Z,97.60
2017-11-17T16:21:53.709Z,97.50
2017-11-17T16:24:21.209Z,97.50
2017-11-17T16:26:48.737Z,97.40
2017-11-17T16:29:16.675Z,97.60
2017-11-17T16:31:44.184Z,97.60
2017-11-17T16:34:11.712Z,97.60
2017-11-17T16:36:39.200Z,97.60
2017-11-17T16:39:08.107Z,97.70
2017-11-17T16:41:35.628Z,97.70
2017-11-17T16:44:03.547Z,97.50
2017-11-17T16:46:31.034Z,97.50
2017-11-17T16:48:58.537Z,97.50
2017-11-17T16:51:26.081Z,97.70
2017-11-17T16:53:53.980Z,97.70
2017-11-17T16:56:21.464Z,97.70
2017-11-17T16:58:48.951Z,97.80
2017-11-17T17:01:16.453Z,97.70
2017-11-17T17:03:43.959Z,97.40
2017-11-17T17:06:11.469Z,97.00
2017-11-17T17:08:39.054Z,97.00
2017-11-17T17:11:06.557Z,97.10
2017-11-17T17:13:35.388Z,97.60
2017-11-17T17:16:02.869Z,97.60
2017-11-17T17:18:30.375Z,97.80
2017-11-17T17:20:57.892Z,97.80
2017-11-17T17:23:25.411Z,97.80
2017-11-17T17:25:53.828Z,98.00
2017-11-17T17:28:21.376Z,98.00
2017-11-17T17:30:49.833Z,98.10
2017-11-17T17:33:17.317Z,98.20
2017-11-17T17:35:45.679Z,98.20
2017-11-17T17:38:13.167Z,98.20
2017-11-17T17:40:42.619Z,98.30
2017-11-17T17:43:10.110Z,98.20
2017-11-17T17:45:37.625Z,98.20
2017-11-17T17:48:05.134Z,98.20
2017-11-17T17:50:32.633Z,98.30
2017-11-17T17:53:00.135Z,98.30
2017-11-17T17:55:27.621Z,98.20
2017-11-17T17:57:55.135Z,98.20
2017-11-17T18:00:22.629Z,98.10
2017-11-17T18:02:50.147Z,98.20
2017-11-17T18:05:17.642Z,98.10
2017-11-17T18:07:45.228Z,98.20
2017-11-17T18:10:13.217Z,98.20
2017-11-17T18:12:40.717Z,98.20
2017-11-17T18:15:08.245Z,98.20
2017-11-17T18:17:35.751Z,98.20
2017-11-17T18:20:03.345Z,98.30
2017-11-17T18:22:31.241Z,98.60
2017-11-17T18:24:58.760Z,98.60
2017-11-17T18:27:26.662Z,98.60
2017-11-17T18:29:54.229Z,98.60
2017-11-17T18:32:21.798Z,98.50
2017-11-17T18:34:49.268Z,98.40
2017-11-17T18:37:16.808Z,98.40
2017-11-17T18:39:44.309Z,98.50
2017-11-17T18:42:12.229Z,98.60
2017-11-17T18:44:40.653Z,98.60
2017-11-17T18:47:09.140Z,98.50
2017-11-17T18:49:36.625Z,98.40
2017-11-17T18:52:04.117Z,98.40
2017-11-17T18:54:33.736Z,98.50
2017-11-17T18:57:01.229Z,98.50
2017-11-17T18:59:29.143Z,98.30
2017-11-17T19:01:56.637Z,98.30
2017-11-17T19:04:24.187Z,98.20
2017-11-17T19:06:51.737Z,98.20
2017-11-17T19:09:20.159Z,98.20
2017-11-17T19:11:47.652Z,98.30
2017-11-17T19:14:15.185Z,98.20
2017-11-17T19:16:43.151Z,97.90
2017-11-17T19:19:10.604Z,97.90
2017-11-17T19:21:38.495Z,97.10
2017-11-17T19:24:07.972Z,97.10
2017-11-17T19:26:35.873Z,97.20
2017-11-17T19:29:03.359Z,97.20
2017-11-17T19:31:30.858Z,97.30
2017-11-17T19:33:58.787Z,97.70
2017-11-17T19:36:26.269Z,97.70
2017-11-17T19:38:55.757Z,97.90
2017-11-17T19:41:25.172Z,98.00
2017-11-17T19:43:52.673Z,98.20
2017-11-17T19:46:22.176Z,98.30
2017-11-17T19:48:49.691Z,98.40
2017-11-17T19:51:17.173Z,98.40
2017-11-17T19:53:45.089Z,98.10
2017-11-17T19:56:12.600Z,98.10
2017-11-17T19:58:40.124Z,98.10
2017-11-17T20:01:07.637Z,98.10
2017-11-17T20:03:35.120Z,98.20
2017-11-17T20:06:02.622Z,98.10
2017-11-17T20:08:30.503Z,98.00
2017-11-17T20:10:58.408Z,98.00
2017-11-17T20:13:25.921Z,98.10
2017-11-17T20:15:53.797Z,98.00
2017-11-17T20:18:21.304Z,98.00
2017-11-17T20:20:48.812Z,97.90
2017-11-17T20:23:16.720Z,97.90
2017-11-17T20:25:44.204Z,97.90
2017-11-17T20:28:11.747Z,98.00
2017-11-17T20:30:39.241Z,98.10
2017-11-17T20:33:08.700Z,98.10
2017-11-17T20:35:36.188Z,98.10
2017-11-17T20:38:08.063Z,98.20
2017-11-17T20:40:38.226Z,98.30
2017-11-17T20:43:06.864Z,98.30
2017-11-17T20:45:37.292Z,98.30
2017-11-17T20:48:04.776Z,98.40
2017-11-17T20:50:33.234Z,98.40
2017-11-17T20:53:02.943Z,98.60
2017-11-17T20:55:33.001Z,98.80
2017-11-17T20:58:02.057Z,98.80
2017-11-17T21:00:31.897Z,99.10
2017-11-17T21:02:59.815Z,99.00
2017-11-17T21:05:27.377Z,99.10
2017-11-17T21:07:54.917Z,99.20
2017-11-17T21:10:22.426Z,99.20
2017-11-17T21:12:50.337Z,99.30
2017-11-17T21:15:17.877Z,99.20
2017-11-17T21:17:47.400Z,99.40
2017-11-17T21:20:14.908Z,99.40
2017-11-17T21:22:43.730Z,99.40
2017-11-17T21:25:11.254Z,99.40
2017-11-17T21:27:39.175Z,99.30
2017-11-17T21:30:06.661Z,99.30
2017-11-17T21:32:34.159Z,99.30
2017-11-17T21:35:01.653Z,99.30
2017-11-17T21:37:29.141Z,99.20
2017-11-17T21:39:56.651Z,99.20
2017-11-17T21:42:24.154Z,99.10
2017-11-17T21:44:51.681Z,99.10
2017-11-17T21:47:19.196Z,99.10
2017-11-17T21:49:48.073Z,99.10
2017-11-17T21:52:15.558Z,99.10
2017-11-17T21:54:43.057Z,99.10
2017-11-17T21:57:10.571Z,99.10
2017-11-17T21:59:39.273Z,99.00
2017-11-17T22:02:06.799Z,98.70
2017-11-17T22:04:34.680Z,98.80
2017-11-17T22:07:03.000Z,98.80
2017-11-17T22:09:30.511Z,98.90
2017-11-17T22:11:58.405Z,98.80
2017-11-17T22:14:27.941Z,98.80
2017-11-17T22:16:55.474Z,98.80
2017-11-17T22:19:22.976Z,98.70
2017-11-17T22:21:50.492Z,98.70
2017-11-17T22:24:18.465Z,98.60
2017-11-17T22:26:46.010Z,98.70
2017-11-17T22:29:13.525Z,98.70
2017-11-17T22:31:41.970Z,98.60
2017-11-17T22:34:09.521Z,98.70
2017-11-17T22:36:37.040Z,98.80
2017-11-17T22:39:04.961Z,98.90
2017-11-17T22:41:32.463Z,98.90
2017-11-17T22:44:00.377Z,99.00
2017-11-17T22:46:27.903Z,99.00
2017-11-17T22:48:55.413Z,99.00
2017-11-17T22:51:22.943Z,98.90
2017-11-17T22:53:50.467Z,98.80
2017-11-17T22:56:18.355Z,98.60
2017-11-17T22:58:45.861Z,98.60
2017-11-17T23:01:13.400Z,98.60
2017-11-17T23:03:40.900Z,98.40
2017-11-17T23:06:08.432Z,98.60
2017-11-17T23:08:37.906Z,98.60
2017-11-17T23:11:05.415Z,98.40
2017-11-17T23:13:32.953Z,98.20
2017-11-17T23:16:00.477Z,98.20
2017-11-17T23:18:27.978Z,98.30
2017-11-17T23:20:55.501Z,98.50
2017-11-17T23:23:23.694Z,98.50
2017-11-17T23:25:51.199Z,98.60
2017-11-17T23:28:19.266Z,98.60
2017-11-17T23:30:46.797Z,98.60
2017-11-17T23:33:14.292Z,98.70
2017-11-17T23:35:42.184Z,98.60
2017-11-17T23:38:09.936Z,98.60
2017-11-17T23:40:37.477Z,98.60
2017-11-17T23:43:05.360Z,98.60
2017-11-17T23:45:32.869Z,98.60
2017-11-17T23:48:00.370Z,98.70
2017-11-17T23:50:28.427Z,98.70
2017-11-17T23:52:58.382Z,98.80
2017-11-17T23:55:25.920Z,98.80
2017-11-17T23:57:53.475Z,98.70
